createdAt,value
2022-08-03T00:01:20.254Z,8.68
2022-08-03T00:02:52.077Z,8.00
2022-08-03T00:04:33.634Z,9.60
2022-08-03T00:06:06.321Z,10.02
2022-08-03T00:07:38.709Z,9.43
2022-08-03T00:09:11.225Z,6.32
2022-08-03T00:10:43.074Z,10.63
2022-08-03T00:12:15.038Z,8.23
2022-08-03T00:13:47.167Z,9.60
2022-08-03T00:15:21.531Z,13.38
2022-08-03T00:16:55.094Z,8.55
2022-08-03T00:18:26.870Z,8.68
2022-08-03T00:19:58.569Z,11.13
2022-08-03T00:21:30.357Z,8.20
2022-08-03T00:23:02.176Z,9.15
2022-08-03T00:24:36.583Z,9.18
2022-08-03T00:26:08.299Z,8.65
2022-08-03T00:27:40.073Z,9.73
2022-08-03T00:29:11.782Z,10.88
2022-08-03T00:30:43.522Z,8.27
2022-08-03T00:32:17.976Z,9.40
2022-08-03T00:33:59.512Z,10.23
2022-08-03T00:35:50.270Z,13.68
2022-08-03T00:37:22.977Z,8.02
2022-08-03T00:39:12.783Z,9.70
2022-08-03T00:40:44.538Z,10.70
2022-08-03T00:42:16.567Z,8.82
2022-08-03T00:43:48.633Z,10.35
2022-08-03T00:45:24.236Z,9.55
2022-08-03T00:46:55.947Z,8.88
2022-08-03T00:48:33.114Z,9.23
2022-08-03T00:50:06.525Z,9.10
2022-08-03T00:51:38.546Z,10.10
2022-08-03T00:53:13.426Z,10.27
2022-08-03T00:54:45.213Z,11.63
2022-08-03T00:56:18.155Z,9.80
2022-08-03T00:57:50.501Z,8.88
2022-08-03T00:59:22.837Z,11.05
2022-08-03T01:00:54.749Z,11.57
2022-08-03T01:02:27.073Z,8.35
2022-08-03T01:04:00.249Z,14.57
2022-08-03T01:05:40.209Z,8.43
2022-08-03T01:07:17.808Z,10.60
2022-08-03T01:08:58.509Z,10.18
2022-08-03T01:10:39.757Z,10.13
2022-08-03T01:12:18.534Z,8.50
2022-08-03T01:14:03.856Z,8.27
2022-08-03T01:15:58.578Z,9.48
2022-08-03T01:17:36.751Z,7.43
2022-08-03T01:19:31.802Z,8.82
2022-08-03T01:21:10.535Z,8.70
2022-08-03T01:23:00.664Z,11.15
2022-08-03T01:24:41.447Z,9.88
2022-08-03T01:26:37.887Z,8.27
2022-08-03T01:28:28.346Z,9.20
2022-08-03T01:30:04.513Z,10.40
2022-08-03T01:33:00.127Z,8.43
2022-08-03T01:33:37.095Z,9.73
2022-08-03T01:35:12.635Z,9.50
2022-08-03T01:36:51.216Z,11.50
2022-08-03T01:38:26.091Z,9.52
2022-08-03T01:39:59.652Z,9.52
2022-08-03T01:41:34.167Z,9.82
2022-08-03T01:43:08.445Z,9.75
2022-08-03T01:44:42.649Z,8.90
2022-08-03T01:46:17.488Z,9.13
2022-08-03T01:47:50.295Z,8.20
2022-08-03T01:49:22.591Z,8.40
2022-08-03T01:50:56.774Z,11.05
2022-08-03T01:52:30.565Z,9.38
2022-08-03T01:54:04.580Z,9.63
2022-08-03T01:55:38.861Z,9.15
2022-08-03T01:57:11.094Z,9.40
2022-08-03T01:58:45.496Z,8.95
2022-08-03T02:00:19.186Z,9.80
2022-08-03T02:02:15.640Z,12.13
2022-08-03T02:04:00.050Z,8.48
2022-08-03T02:05:34.055Z,9.98
2022-08-03T02:07:06.936Z,8.15
2022-08-03T02:08:40.575Z,9.82
2022-08-03T02:10:16.062Z,10.93
2022-08-03T02:11:56.609Z,10.00
2022-08-03T02:13:30.511Z,8.27
2022-08-03T02:15:03.080Z,8.82
2022-08-03T02:16:36.265Z,11.02
2022-08-03T02:18:11.312Z,8.90
2022-08-03T02:19:44.638Z,9.13
2022-08-03T02:21:55.764Z,11.00
2022-08-03T02:23:08.757Z,8.68
2022-08-03T02:24:41.022Z,9.80
2022-08-03T02:26:17.372Z,7.68
2022-08-03T02:27:53.038Z,9.30
2022-08-03T02:29:40.243Z,11.20
2022-08-03T02:31:15.693Z,8.82
2022-08-03T02:32:53.236Z,11.38
2022-08-03T02:34:29.547Z,9.57
2022-08-03T02:36:03.123Z,8.07
2022-08-03T02:37:42.668Z,9.95
2022-08-03T02:39:20.670Z,11.30
2022-08-03T02:40:56.216Z,10.35
2022-08-03T02:42:29.850Z,9.02
2022-08-03T02:44:07.570Z,9.65
2022-08-03T02:45:45.613Z,12.68
2022-08-03T02:47:21.338Z,11.02
2022-08-03T02:48:55.756Z,9.18
2022-08-03T02:50:31.126Z,12.35
2022-08-03T02:52:04.691Z,9.93
2022-08-03T02:53:37.202Z,10.63
2022-08-03T02:55:11.807Z,10.70
2022-08-03T02:56:45.330Z,10.63
2022-08-03T02:58:21.195Z,9.82
2022-08-03T02:59:54.153Z,13.05
2022-08-03T03:01:27.859Z,13.18
2022-08-03T03:03:01.691Z,9.90
2022-08-03T03:04:36.244Z,9.30
2022-08-03T03:06:11.257Z,12.02
2022-08-03T03:07:51.351Z,12.63
2022-08-03T03:09:25.025Z,9.80
2022-08-03T03:11:15.071Z,10.35
2022-08-03T03:12:48.221Z,9.10
2022-08-03T03:14:33.190Z,8.77
2022-08-03T03:16:06.676Z,10.05
2022-08-03T03:17:39.324Z,11.25
2022-08-03T03:19:13.059Z,10.85
2022-08-03T03:20:45.837Z,10.93
2022-08-03T03:22:20.090Z,11.77
2022-08-03T03:23:52.829Z,10.63
2022-08-03T03:25:24.823Z,9.15
2022-08-03T03:26:57.676Z,11.57
2022-08-03T03:28:30.823Z,10.63
2022-08-03T03:30:02.933Z,14.98
2022-08-03T03:31:35.420Z,10.65
2022-08-03T03:33:07.602Z,11.20
2022-08-03T03:34:39.665Z,14.65
2022-08-03T03:36:11.437Z,11.65
2022-08-03T03:37:44.574Z,11.52
2022-08-03T03:39:16.301Z,9.77
2022-08-03T03:40:48.569Z,13.50
2022-08-03T03:42:20.590Z,12.32
2022-08-03T03:43:52.341Z,11.07
2022-08-03T03:45:24.498Z,10.30
2022-08-03T03:46:57.736Z,10.73
2022-08-03T03:48:29.559Z,13.10
2022-08-03T03:50:05.579Z,10.43
2022-08-03T03:51:37.406Z,12.18
2022-08-03T03:53:11.948Z,10.52
2022-08-03T03:54:45.106Z,13.10
2022-08-03T03:56:18.137Z,10.10
2022-08-03T03:57:49.823Z,11.25
2022-08-03T03:59:21.497Z,10.23
2022-08-03T04:00:53.879Z,10.05
2022-08-03T04:02:25.742Z,12.00
2022-08-03T04:03:57.568Z,10.52
2022-08-03T04:05:48.087Z,10.65
2022-08-03T04:07:38.830Z,10.52
2022-08-03T04:09:30.896Z,10.98
2022-08-03T04:11:11.455Z,9.93
2022-08-03T04:12:50.042Z,12.43
2022-08-03T04:14:27.032Z,11.35
2022-08-03T04:15:59.907Z,11.00
2022-08-03T04:17:32.718Z,11.38
2022-08-03T04:19:08.866Z,11.85
2022-08-03T04:20:45.519Z,11.70
2022-08-03T04:22:23.465Z,11.10
2022-08-03T04:23:58.964Z,11.70
2022-08-03T04:25:37.026Z,11.52
2022-08-03T04:27:13.050Z,13.02
2022-08-03T04:28:46.509Z,13.13
2022-08-03T04:30:19.212Z,11.05
2022-08-03T04:31:54.388Z,11.23
2022-08-03T04:33:29.549Z,10.48
2022-08-03T04:35:01.585Z,13.10
2022-08-03T04:36:38.248Z,12.20
2022-08-03T04:38:14.341Z,11.45
2022-08-03T04:39:49.212Z,9.93
2022-08-03T04:41:25.631Z,12.63
2022-08-03T04:42:59.457Z,11.38
2022-08-03T04:44:35.694Z,12.98
2022-08-03T04:46:09.131Z,13.48
2022-08-03T04:47:42.243Z,13.18
2022-08-03T04:49:14.304Z,11.55
2022-08-03T04:50:47.548Z,11.20
2022-08-03T04:52:19.365Z,11.52
2022-08-03T04:53:51.122Z,12.13
2022-08-03T04:55:26.901Z,11.80
2022-08-03T04:56:59.958Z,15.77
2022-08-03T04:58:31.640Z,10.80
2022-08-03T05:00:05.656Z,13.60
2022-08-03T05:01:37.953Z,12.50
2022-08-03T05:03:20.105Z,13.68
2022-08-03T05:04:56.254Z,11.60
2022-08-03T05:06:28.025Z,15.63
2022-08-03T05:08:00.739Z,11.63
2022-08-03T05:09:52.669Z,12.82
2022-08-03T05:11:24.885Z,11.15
2022-08-03T05:12:57.939Z,10.38
2022-08-03T05:14:29.622Z,12.00
2022-08-03T05:16:02.041Z,10.65
2022-08-03T05:17:34.136Z,11.02
2022-08-03T05:19:05.956Z,11.05
2022-08-03T05:20:38.806Z,11.95
2022-08-03T05:22:10.565Z,16.23
2022-08-03T05:23:42.475Z,10.40
2022-08-03T05:25:17.334Z,11.60
2022-08-03T05:26:52.464Z,9.80
2022-08-03T05:28:25.576Z,11.65
2022-08-03T05:30:29.651Z,11.82
2022-08-03T05:31:49.126Z,10.95
2022-08-03T05:33:20.814Z,11.30
2022-08-03T05:34:52.617Z,11.05
2022-08-03T05:36:24.378Z,11.32
2022-08-03T05:37:56.139Z,12.10
2022-08-03T05:39:27.882Z,11.60
2022-08-03T05:41:20.228Z,10.02
2022-08-03T05:42:51.385Z,12.98
2022-08-03T05:44:25.536Z,10.38
2022-08-03T05:46:12.953Z,11.25
2022-08-03T05:47:45.685Z,11.65
2022-08-03T05:49:17.443Z,12.57
2022-08-03T05:50:49.238Z,11.88
2022-08-03T05:52:20.958Z,10.25
2022-08-03T05:53:53.073Z,9.20
2022-08-03T05:55:25.414Z,11.00
2022-08-03T05:56:57.269Z,11.13
2022-08-03T05:58:29.902Z,10.05
2022-08-03T06:00:05.906Z,11.73
2022-08-03T06:01:43.298Z,11.30
2022-08-03T06:03:15.072Z,10.15
2022-08-03T06:04:46.987Z,10.50
2022-08-03T06:06:19.120Z,12.13
2022-08-03T06:07:50.812Z,10.98
2022-08-03T06:09:22.490Z,14.43
2022-08-03T06:11:03.716Z,12.13
2022-08-03T06:12:36.203Z,10.32
2022-08-03T06:14:08.181Z,9.38
2022-08-03T06:15:41.881Z,12.10
2022-08-03T06:17:13.603Z,12.48
2022-08-03T06:18:46.983Z,12.15
2022-08-03T06:20:19.963Z,10.85
2022-08-03T06:21:51.685Z,11.73
2022-08-03T06:23:25.353Z,14.13
2022-08-03T06:25:15.106Z,10.95
2022-08-03T06:26:46.818Z,13.05
2022-08-03T06:28:51.343Z,10.40
2022-08-03T06:30:12.400Z,10.93
2022-08-03T06:31:45.461Z,10.25
2022-08-03T06:33:17.328Z,11.65
2022-08-03T06:34:49.107Z,10.32
2022-08-03T06:36:20.881Z,12.15
2022-08-03T06:37:52.651Z,11.73
2022-08-03T06:39:24.372Z,12.18
2022-08-03T06:40:56.670Z,12.65
2022-08-03T06:42:28.358Z,11.20
2022-08-03T06:44:03.984Z,13.38
2022-08-03T06:45:36.353Z,12.50
2022-08-03T06:47:09.663Z,9.32
2022-08-03T06:48:41.393Z,11.15
2022-08-03T06:50:17.822Z,10.75
2022-08-03T06:52:05.741Z,10.38
2022-08-03T06:53:38.629Z,10.63
2022-08-03T06:55:10.330Z,9.88
2022-08-03T06:56:42.171Z,11.90
2022-08-03T06:58:13.873Z,8.80
2022-08-03T07:00:06.389Z,10.25
2022-08-03T07:01:37.340Z,11.70
2022-08-03T07:03:10.434Z,12.18
2022-08-03T07:04:42.185Z,11.80
2022-08-03T07:06:13.954Z,12.98
2022-08-03T07:07:46.074Z,11.20
2022-08-03T07:09:17.835Z,10.55
2022-08-03T07:10:49.632Z,10.10
2022-08-03T07:12:21.337Z,11.95
2022-08-03T07:13:53.113Z,10.68
2022-08-03T07:15:54.095Z,10.77
2022-08-03T07:17:16.857Z,12.05
2022-08-03T07:18:49.913Z,8.55
2022-08-03T07:20:21.639Z,10.40
2022-08-03T07:21:53.567Z,8.85
2022-08-03T07:23:25.618Z,10.27
2022-08-03T07:24:57.487Z,12.57
2022-08-03T07:26:29.169Z,10.75
2022-08-03T07:28:00.885Z,10.15
2022-08-03T07:29:34.646Z,10.30
2022-08-03T07:31:06.498Z,10.48
2022-08-03T07:32:49.730Z,10.65
2022-08-03T07:34:23.613Z,10.52
2022-08-03T07:35:55.287Z,13.48
2022-08-03T07:37:27.018Z,10.90
2022-08-03T07:38:58.739Z,12.68
2022-08-03T07:40:32.006Z,8.93
2022-08-03T07:42:04.313Z,12.73
2022-08-03T07:43:36.021Z,9.55
2022-08-03T07:45:09.386Z,12.40
2022-08-03T07:46:48.623Z,11.73
2022-08-03T07:48:20.478Z,11.35
2022-08-03T07:49:53.688Z,9.77
2022-08-03T07:51:25.539Z,12.00
2022-08-03T07:52:58.075Z,8.18
2022-08-03T07:54:29.795Z,11.35
2022-08-03T07:56:01.619Z,12.70
2022-08-03T07:57:37.757Z,12.68
2022-08-03T07:59:09.654Z,11.52
2022-08-03T08:00:42.262Z,10.77
2022-08-03T08:02:14.907Z,12.35
2022-08-03T08:03:53.238Z,8.80
2022-08-03T08:05:27.933Z,9.30
2022-08-03T08:06:59.660Z,11.60
2022-08-03T08:08:31.573Z,10.50
2022-08-03T08:10:04.584Z,10.65
2022-08-03T08:11:39.988Z,11.30
2022-08-03T08:13:11.951Z,12.57
2022-08-03T08:14:46.602Z,10.00
2022-08-03T08:16:18.305Z,11.27
2022-08-03T08:17:51.975Z,12.43
2022-08-03T08:19:23.714Z,10.75
2022-08-03T08:21:01.624Z,12.10
2022-08-03T08:22:33.388Z,13.43
2022-08-03T08:24:10.941Z,11.73
2022-08-03T08:25:50.755Z,11.13
2022-08-03T08:27:22.444Z,13.23
2022-08-03T08:28:54.148Z,11.35
2022-08-03T08:30:26.409Z,13.65
2022-08-03T08:32:00.955Z,13.82
2022-08-03T08:34:01.451Z,11.25
2022-08-03T08:35:26.515Z,12.60
2022-08-03T08:36:59.634Z,11.68
2022-08-03T08:38:31.352Z,10.90
2022-08-03T08:40:04.017Z,13.15
2022-08-03T08:41:35.813Z,11.65
2022-08-03T08:43:07.699Z,11.50
2022-08-03T08:44:39.627Z,10.15
2022-08-03T08:46:23.395Z,12.38
2022-08-03T08:48:03.442Z,10.32
2022-08-03T08:49:40.259Z,11.15
2022-08-03T08:51:13.467Z,11.52
2022-08-03T08:52:48.891Z,12.48
2022-08-03T08:54:22.426Z,17.42
2022-08-03T08:55:58.840Z,13.68
2022-08-03T08:57:42.686Z,13.48
2022-08-03T08:59:15.186Z,11.02
2022-08-03T09:00:48.386Z,11.57
2022-08-03T09:02:20.492Z,10.70
2022-08-03T09:03:54.050Z,15.43
2022-08-03T09:05:54.659Z,12.10
2022-08-03T09:07:29.181Z,12.32
2022-08-03T09:09:02.600Z,12.20
2022-08-03T09:10:34.798Z,11.57
2022-08-03T09:12:35.423Z,12.90
2022-08-03T09:14:00.074Z,11.82
2022-08-03T09:15:33.252Z,9.77
2022-08-03T09:17:05.164Z,10.40
2022-08-03T09:18:36.929Z,9.13
2022-08-03T09:20:09.872Z,11.27
2022-08-03T09:21:41.760Z,9.10
2022-08-03T09:23:59.616Z,9.60
2022-08-03T09:25:23.726Z,10.00
2022-08-03T09:26:56.219Z,12.57
2022-08-03T09:28:57.226Z,11.85
2022-08-03T09:30:34.473Z,12.07
2022-08-03T09:32:07.105Z,8.45
2022-08-03T09:33:47.809Z,9.52
2022-08-03T09:35:51.588Z,9.93
2022-08-03T09:39:04.415Z,13.18
2022-08-03T09:40:37.729Z,11.20
2022-08-03T09:42:10.863Z,12.77
2022-08-03T09:43:47.161Z,6.95
2022-08-03T09:45:26.810Z,11.07
2022-08-03T09:46:58.582Z,10.80
2022-08-03T09:48:31.972Z,9.70
2022-08-03T09:50:05.889Z,10.65
2022-08-03T09:52:37.818Z,7.65
2022-08-03T09:53:30.031Z,10.23
2022-08-03T09:55:02.883Z,9.30
2022-08-03T09:56:41.538Z,7.82
2022-08-03T09:58:14.289Z,8.85
2022-08-03T09:59:46.106Z,10.32
2022-08-03T10:01:24.036Z,9.98
2022-08-03T10:03:04.664Z,6.57
2022-08-03T10:04:47.384Z,9.25
2022-08-03T10:06:20.302Z,8.93
2022-08-03T10:07:52.363Z,11.65
2022-08-03T10:09:24.069Z,9.40
2022-08-03T10:10:57.867Z,7.65
2022-08-03T10:12:31.319Z,14.57
2022-08-03T10:14:04.900Z,6.70
2022-08-03T10:16:23.606Z,6.55
2022-08-03T10:17:28.484Z,8.50
2022-08-03T10:19:00.299Z,9.27
2022-08-03T10:20:36.479Z,8.35
2022-08-03T10:22:12.258Z,5.80
2022-08-03T10:23:44.312Z,6.85
2022-08-03T10:25:17.285Z,8.73
2022-08-03T10:26:50.716Z,6.70
2022-08-03T10:28:24.938Z,11.80
2022-08-03T10:30:02.902Z,9.55
2022-08-03T10:31:39.692Z,6.15
2022-08-03T10:33:51.013Z,7.85
2022-08-03T10:35:21.858Z,6.65
2022-08-03T10:36:57.156Z,7.70
2022-08-03T10:38:32.817Z,6.47
2022-08-03T10:40:08.346Z,5.63
2022-08-03T10:41:42.560Z,11.27
2022-08-03T10:43:19.887Z,6.28
2022-08-03T10:45:03.749Z,5.38
2022-08-03T10:46:44.157Z,9.25
2022-08-03T10:48:17.962Z,5.95
2022-08-03T10:49:50.440Z,9.93
2022-08-03T10:51:23.148Z,8.20
2022-08-03T10:52:56.396Z,8.90
2022-08-03T10:54:58.207Z,6.60
2022-08-03T10:56:58.509Z,10.50
2022-08-03T10:58:57.105Z,6.10
2022-08-03T11:00:49.843Z,8.43
2022-08-03T11:02:22.353Z,7.40
2022-08-03T11:04:17.190Z,7.43
2022-08-03T11:05:49.517Z,6.13
2022-08-03T11:07:23.522Z,6.65
2022-08-03T11:09:17.216Z,9.25
2022-08-03T11:10:49.890Z,8.57
2022-08-03T11:12:28.480Z,5.93
2022-08-03T11:14:07.563Z,14.52
2022-08-03T11:15:43.478Z,8.02
2022-08-03T11:17:15.392Z,6.72
2022-08-03T11:18:56.314Z,9.20
2022-08-03T11:20:46.833Z,9.50
2022-08-03T11:22:20.257Z,6.95
2022-08-03T11:24:04.285Z,10.57
2022-08-03T11:26:25.721Z,7.57
2022-08-03T11:28:28.595Z,6.75
2022-08-03T11:30:04.680Z,7.75
2022-08-03T11:31:50.255Z,6.93
2022-08-03T11:33:32.051Z,7.57
2022-08-03T11:35:08.584Z,5.38
2022-08-03T11:37:17.928Z,6.60
2022-08-03T11:39:13.553Z,9.30
2022-08-03T11:40:50.553Z,6.53
2022-08-03T11:42:43.910Z,5.38
2022-08-03T11:44:39.932Z,6.57
2022-08-03T11:46:29.564Z,9.73
2022-08-03T11:48:15.729Z,9.52
2022-08-03T11:49:48.458Z,7.50
2022-08-03T11:51:22.706Z,7.97
2022-08-03T11:52:54.872Z,7.57
2022-08-03T11:54:26.634Z,7.85
2022-08-03T11:55:59.833Z,8.20
2022-08-03T11:59:16.850Z,7.97
2022-08-03T11:59:32.465Z,5.80
2022-08-03T12:01:05.174Z,8.35
2022-08-03T12:02:36.899Z,5.80
2022-08-03T12:04:11.672Z,8.23
2022-08-03T12:05:51.842Z,7.68
2022-08-03T12:08:03.554Z,10.27
2022-08-03T12:09:17.049Z,6.65
2022-08-03T12:10:53.862Z,5.25
2022-08-03T12:12:25.598Z,7.40
2022-08-03T12:14:48.789Z,12.05
2022-08-03T12:15:53.953Z,6.78
2022-08-03T12:17:33.247Z,10.55
2022-08-03T12:19:06.810Z,6.25
2022-08-03T12:20:41.300Z,7.20
2022-08-03T12:22:13.656Z,8.60
2022-08-03T12:23:45.395Z,9.57
2022-08-03T12:25:39.539Z,9.68
2022-08-03T12:27:11.749Z,7.03
2022-08-03T12:28:49.849Z,7.45
2022-08-03T12:30:23.607Z,6.10
2022-08-03T12:31:56.049Z,9.07
2022-08-03T12:33:28.724Z,9.18
2022-08-03T12:35:04.989Z,8.52
2022-08-03T12:36:39.074Z,11.55
2022-08-03T12:38:12.334Z,8.68
2022-08-03T12:40:02.543Z,8.35
2022-08-03T12:41:40.733Z,11.40
2022-08-03T12:43:13.221Z,10.05
2022-08-03T12:44:46.225Z,7.25
2022-08-03T12:46:19.616Z,7.43
2022-08-03T12:47:55.533Z,9.63
2022-08-03T12:49:28.229Z,8.63
2022-08-03T12:51:08.864Z,7.72
2022-08-03T12:52:45.508Z,9.35
2022-08-03T12:54:24.813Z,9.10
2022-08-03T12:56:05.182Z,6.50
2022-08-03T12:57:41.311Z,10.27
2022-08-03T12:59:32.227Z,7.72
2022-08-03T13:01:09.480Z,8.70
2022-08-03T13:02:46.490Z,7.35
2022-08-03T13:04:26.459Z,5.20
2022-08-03T13:06:01.018Z,7.25
2022-08-03T13:07:41.797Z,6.38
2022-08-03T13:09:19.057Z,6.47
2022-08-03T13:10:51.568Z,7.03
2022-08-03T13:12:25.189Z,7.35
2022-08-03T13:13:56.961Z,7.88
2022-08-03T13:15:29.806Z,7.22
2022-08-03T13:17:10.975Z,7.38
2022-08-03T13:18:42.857Z,7.28
2022-08-03T13:20:14.551Z,7.50
2022-08-03T13:21:53.495Z,6.10
2022-08-03T13:23:35.575Z,7.03
2022-08-03T13:25:09.360Z,7.95
2022-08-03T13:26:41.082Z,5.68
2022-08-03T13:28:14.438Z,6.88
2022-08-03T13:29:46.498Z,5.13
2022-08-03T13:31:18.208Z,6.93
2022-08-03T13:32:51.631Z,6.60
2022-08-03T13:34:24.136Z,8.52
2022-08-03T13:35:56.229Z,7.18
2022-08-03T13:37:28.170Z,6.13
2022-08-03T13:38:59.907Z,5.78
2022-08-03T13:40:41.815Z,5.32
2022-08-03T13:42:13.765Z,7.43
2022-08-03T13:43:45.470Z,7.10
2022-08-03T13:45:18.258Z,7.63
2022-08-03T13:46:50.444Z,5.90
2022-08-03T13:48:37.449Z,4.47
2022-08-03T13:50:09.598Z,5.25
2022-08-03T13:51:41.654Z,5.40
2022-08-03T13:53:13.400Z,4.30
2022-08-03T13:54:47.153Z,4.65
2022-08-03T13:56:20.478Z,5.35
2022-08-03T13:58:02.919Z,5.80
2022-08-03T13:59:38.661Z,7.93
2022-08-03T14:01:10.566Z,5.18
2022-08-03T14:02:42.518Z,5.05
2022-08-03T14:04:21.772Z,6.82
2022-08-03T14:05:54.166Z,5.47
2022-08-03T14:07:25.895Z,4.85
2022-08-03T14:09:00.548Z,7.13
2022-08-03T14:10:34.119Z,6.07
2022-08-03T14:12:08.942Z,6.00
2022-08-03T14:13:41.544Z,5.82
2022-08-03T14:15:13.410Z,6.57
2022-08-03T14:16:45.204Z,6.18
2022-08-03T14:18:27.850Z,4.38
2022-08-03T14:20:01.385Z,4.70
2022-08-03T14:21:35.122Z,5.07
2022-08-03T14:23:07.260Z,5.40
2022-08-03T14:24:38.984Z,6.03
2022-08-03T14:26:12.005Z,3.53
2022-08-03T14:27:45.175Z,8.38
2022-08-03T14:29:16.997Z,5.80
2022-08-03T14:30:49.146Z,6.60
2022-08-03T14:32:20.931Z,4.65
2022-08-03T14:33:52.775Z,5.65
2022-08-03T14:35:24.630Z,5.28
2022-08-03T14:36:56.442Z,6.43
2022-08-03T14:38:28.283Z,4.32
2022-08-03T14:40:00.787Z,6.35
2022-08-03T14:41:32.914Z,1.80
2022-08-03T14:43:06.073Z,4.18
2022-08-03T14:44:37.718Z,5.95
2022-08-03T14:46:09.631Z,7.07
2022-08-03T14:50:29.741Z,5.00
2022-08-03T14:50:34.187Z,5.57
2022-08-03T14:51:26.827Z,6.15
2022-08-03T14:53:04.905Z,5.68
2022-08-03T14:54:37.082Z,6.07
2022-08-03T14:56:10.643Z,4.35
2022-08-03T14:57:42.643Z,5.55
2022-08-03T14:59:15.763Z,7.30
2022-08-03T15:00:47.582Z,7.38
2022-08-03T15:02:23.862Z,6.13
2022-08-03T15:03:56.006Z,3.70
2022-08-03T15:05:27.700Z,8.40
2022-08-03T15:06:59.618Z,7.65
2022-08-03T15:08:31.328Z,5.90
2022-08-03T15:10:03.358Z,5.40
2022-08-03T15:11:35.454Z,5.20
2022-08-03T15:13:07.173Z,4.22
2022-08-03T15:14:40.360Z,5.10
2022-08-03T15:16:12.154Z,5.70
2022-08-03T15:17:59.711Z,5.68
2022-08-03T15:20:01.595Z,3.00
2022-08-03T15:21:46.124Z,5.53
2022-08-03T15:23:16.820Z,3.35
2022-08-03T15:24:48.645Z,5.68
2022-08-03T15:26:30.331Z,4.40
2022-08-03T15:28:05.854Z,5.63
2022-08-03T15:30:04.967Z,3.28
2022-08-03T15:31:31.031Z,5.57
2022-08-03T15:33:02.821Z,7.40
2022-08-03T15:34:34.504Z,4.70
2022-08-03T15:36:06.588Z,3.15
2022-08-03T15:37:38.302Z,3.75
2022-08-03T15:39:10.043Z,7.47
2022-08-03T15:40:41.964Z,4.82
2022-08-03T15:42:13.686Z,6.55
2022-08-03T15:43:47.601Z,4.43
2022-08-03T15:45:20.341Z,3.20
2022-08-03T15:46:53.852Z,4.53
2022-08-03T15:48:26.603Z,4.85
2022-08-03T15:49:58.452Z,5.63
2022-08-03T15:51:30.349Z,3.53
2022-08-03T15:53:02.118Z,4.28
2022-08-03T15:54:33.823Z,3.03
2022-08-03T15:56:13.246Z,3.92
2022-08-03T15:59:11.278Z,4.38
2022-08-03T15:59:40.398Z,4.82
2022-08-03T16:01:16.407Z,4.35
2022-08-03T16:02:55.763Z,4.38
2022-08-03T16:04:28.647Z,4.28
2022-08-03T16:06:01.448Z,5.22
2022-08-03T16:08:03.250Z,4.47
2022-08-03T16:09:42.898Z,5.68
2022-08-03T16:11:16.122Z,6.30
2022-08-03T16:12:48.543Z,4.68
2022-08-03T16:14:33.357Z,4.85
2022-08-03T16:16:07.502Z,6.25
2022-08-03T16:17:40.041Z,6.80
2022-08-03T16:19:13.061Z,3.65
2022-08-03T16:20:45.162Z,6.20
2022-08-03T16:22:22.176Z,3.30
2022-08-03T16:23:54.817Z,3.72
2022-08-03T16:25:27.877Z,5.28
2022-08-03T16:27:00.494Z,6.38
2022-08-03T16:28:34.085Z,4.82
2022-08-03T16:30:07.837Z,3.83
2022-08-03T16:31:39.738Z,4.35
2022-08-03T16:33:23.089Z,4.95
2022-08-03T16:34:56.192Z,6.13
2022-08-03T16:36:27.902Z,5.97
2022-08-03T16:38:10.416Z,4.82
2022-08-03T16:39:43.303Z,7.03
2022-08-03T16:41:15.028Z,4.13
2022-08-03T16:42:47.180Z,5.90
2022-08-03T16:44:19.350Z,5.90
2022-08-03T16:45:51.281Z,8.00
2022-08-03T16:47:23.165Z,7.07
2022-08-03T16:48:54.969Z,6.05
2022-08-03T16:50:28.215Z,6.50
2022-08-03T16:51:59.947Z,8.27
2022-08-03T16:53:33.629Z,8.43
2022-08-03T16:55:48.952Z,6.88
2022-08-03T16:57:16.442Z,4.82
2022-08-03T16:59:08.056Z,7.03
2022-08-03T17:00:41.581Z,8.63
2022-08-03T17:02:21.691Z,4.88
2022-08-03T17:04:03.144Z,4.45
2022-08-03T17:05:47.287Z,4.95
2022-08-03T17:07:20.699Z,7.30
2022-08-03T17:08:55.409Z,8.20
2022-08-03T17:10:29.949Z,6.47
2022-08-03T17:12:01.691Z,6.22
2022-08-03T17:13:39.732Z,3.08
2022-08-03T17:15:12.053Z,4.57
2022-08-03T17:16:52.899Z,5.88
2022-08-03T17:18:26.767Z,4.68
2022-08-03T17:19:59.898Z,8.65
2022-08-03T17:21:37.536Z,6.82
2022-08-03T17:25:07.661Z,4.53
2022-08-03T17:26:43.557Z,5.47
2022-08-03T17:28:49.758Z,4.18
2022-08-03T17:30:12.189Z,8.20
2022-08-03T17:31:49.045Z,4.88
2022-08-03T17:33:21.486Z,6.13
2022-08-03T17:34:55.321Z,8.93
2022-08-03T17:37:01.691Z,5.60
2022-08-03T17:38:23.064Z,4.40
2022-08-03T17:39:59.045Z,4.22
2022-08-03T17:41:37.841Z,9.80
2022-08-03T17:44:13.285Z,6.60
2022-08-03T17:45:15.839Z,8.50
2022-08-03T17:46:47.880Z,9.25
2022-08-03T17:48:20.737Z,7.25
2022-08-03T17:49:56.981Z,7.80
2022-08-03T17:51:33.315Z,6.97
2022-08-03T17:53:15.451Z,10.52
2022-08-03T17:55:57.227Z,12.50
2022-08-03T17:57:06.319Z,11.70
2022-08-03T17:59:01.532Z,7.45
2022-08-03T18:01:01.849Z,8.02
2022-08-03T18:03:03.253Z,7.20
2022-08-03T18:04:41.748Z,5.22
2022-08-03T18:06:13.521Z,9.90
2022-08-03T18:08:02.577Z,5.90
2022-08-03T18:10:03.451Z,7.32
2022-08-03T18:11:37.095Z,6.20
2022-08-03T18:13:15.157Z,10.27
2022-08-03T18:14:57.521Z,5.88
2022-08-03T18:16:38.093Z,9.10
2022-08-03T18:18:12.569Z,5.03
2022-08-03T18:20:01.967Z,8.40
2022-08-03T18:22:03.515Z,8.25
2022-08-03T18:23:36.826Z,7.43
2022-08-03T18:25:10.539Z,7.93
2022-08-03T18:26:49.154Z,7.28
2022-08-03T18:28:23.207Z,7.70
2022-08-03T18:29:56.999Z,6.53
2022-08-03T18:32:00.503Z,7.25
2022-08-03T18:34:19.599Z,7.50
2022-08-03T18:35:16.052Z,6.40
2022-08-03T18:36:48.916Z,8.30
2022-08-03T18:38:21.856Z,7.72
2022-08-03T18:39:57.888Z,7.22
2022-08-03T18:41:33.746Z,7.80
2022-08-03T18:43:08.029Z,8.20
2022-08-03T18:44:53.141Z,9.38
2022-08-03T18:46:37.006Z,7.22
2022-08-03T18:48:22.914Z,8.57
2022-08-03T18:50:08.664Z,7.78
2022-08-03T18:51:47.011Z,7.90
2022-08-03T18:54:02.143Z,11.45
2022-08-03T18:55:33.522Z,11.05
2022-08-03T18:57:12.751Z,17.65
2022-08-03T18:59:02.251Z,11.35
2022-08-03T19:00:54.317Z,12.40
2022-08-03T19:02:34.624Z,12.88
2022-08-03T19:04:13.080Z,9.57
2022-08-03T19:06:02.817Z,7.90
2022-08-03T19:07:46.424Z,8.48
2022-08-03T19:09:37.329Z,9.63
2022-08-03T19:11:21.640Z,8.55
2022-08-03T19:13:04.513Z,9.45
2022-08-03T19:14:42.438Z,8.10
2022-08-03T19:16:20.413Z,10.35
2022-08-03T19:17:53.256Z,8.18
2022-08-03T19:19:27.148Z,6.72
2022-08-03T19:21:17.387Z,11.32
2022-08-03T19:22:51.156Z,7.63
2022-08-03T19:24:26.206Z,8.05
2022-08-03T19:26:00.364Z,11.35
2022-08-03T19:27:33.067Z,10.38
2022-08-03T19:29:10.728Z,6.40
2022-08-03T19:30:53.687Z,7.50
2022-08-03T19:32:28.817Z,11.63
2022-08-03T19:34:02.419Z,8.13
2022-08-03T19:35:51.338Z,8.48
2022-08-03T19:37:38.363Z,8.38
2022-08-03T19:39:14.111Z,8.18
2022-08-03T19:40:51.487Z,7.82
2022-08-03T19:42:29.784Z,10.13
2022-08-03T19:44:04.843Z,10.27
2022-08-03T19:46:04.881Z,12.75
2022-08-03T19:47:38.993Z,9.73
2022-08-03T19:49:15.469Z,6.85
2022-08-03T19:50:48.471Z,11.23
2022-08-03T19:52:24.467Z,10.65
2022-08-03T19:54:04.806Z,7.97
2022-08-03T19:55:38.711Z,8.50
2022-08-03T19:57:23.379Z,11.23
2022-08-03T19:58:57.397Z,11.30
2022-08-03T20:00:32.693Z,8.80
2022-08-03T20:02:10.102Z,13.85
2022-08-03T20:03:59.313Z,9.32
2022-08-03T20:05:45.089Z,11.10
2022-08-03T20:07:25.050Z,10.00
2022-08-03T20:08:57.690Z,11.27
2022-08-03T20:10:32.174Z,8.52
2022-08-03T20:12:04.552Z,11.30
2022-08-03T20:13:39.145Z,10.95
2022-08-03T20:15:11.501Z,9.52
2022-08-03T20:16:43.264Z,10.77
2022-08-03T20:18:16.619Z,11.10
2022-08-03T20:19:52.593Z,8.10
2022-08-03T20:21:27.231Z,10.35
2022-08-03T20:23:00.973Z,12.75
2022-08-03T20:24:34.466Z,9.88
2022-08-03T20:26:09.394Z,9.15
2022-08-03T20:28:07.901Z,10.32
2022-08-03T20:30:05.482Z,10.82
2022-08-03T20:31:36.467Z,11.48
2022-08-03T20:33:08.533Z,10.57
2022-08-03T20:34:40.727Z,12.60
2022-08-03T20:36:17.690Z,9.70
2022-08-03T20:37:49.944Z,10.70
2022-08-03T20:39:21.748Z,8.65
2022-08-03T20:40:53.595Z,10.98
2022-08-03T20:42:25.320Z,10.10
2022-08-03T20:43:57.381Z,10.57
2022-08-03T20:46:00.432Z,13.77
2022-08-03T20:47:23.801Z,9.60
2022-08-03T20:48:57.275Z,11.30
2022-08-03T20:50:31.411Z,10.38
2022-08-03T20:52:05.265Z,9.70
2022-08-03T20:57:35.673Z,11.35
2022-08-03T20:59:15.128Z,8.93
2022-08-03T21:00:47.832Z,14.15
2022-08-03T21:02:30.557Z,12.77
2022-08-03T21:04:04.668Z,11.15
2022-08-03T21:05:48.283Z,11.50
2022-08-03T21:09:19.685Z,11.07
2022-08-03T21:10:53.078Z,11.55
2022-08-03T21:12:33.137Z,11.02
2022-08-03T21:13:07.722Z,11.23
2022-08-03T21:13:08.030Z,9.98
2022-08-03T21:13:12.764Z,11.35
2022-08-03T21:14:10.774Z,8.73
2022-08-03T21:16:12.337Z,9.15